Time;durP1;ratioP1;P1;durP2;ratioP2;P2;SDS_P1;SDS_P2;PMS_P1;PMS_P2;Temp;Humidity;BMP_temperature;BMP_pressure;BME280_temperature;BME280_humidity;BME280_pressure;Samples;Min_cycle;Max_cycle;Signal;HPM_P1;HPM_P2
2021/12/31 00:01:24;;;;;;;13.50;3.30;;;12.70;99.90;;;;;;4971779;28;20117;-56
2021/12/31 00:03:52;;;;;;;10.10;3.13;;;12.70;99.90;;;;;;4971580;28;20517;-56
2021/12/31 00:06:17;;;;;;;13.48;3.75;;;12.70;99.90;;;;;;4971876;28;20122;-57
2021/12/31 00:08:43;;;;;;;17.15;4.32;;;12.70;99.90;;;;;;4953882;28;20130;-57
2021/12/31 00:11:09;;;;;;;12.05;3.28;;;12.70;99.90;;;;;;4972121;28;20045;-57
2021/12/31 00:13:34;;;;;;;17.48;4.22;;;12.70;99.90;;;;;;4971693;28;20094;-57
2021/12/31 00:16:00;;;;;;;16.10;5.13;;;12.70;99.90;;;;;;4973229;28;20043;-57
2021/12/31 00:18:26;;;;;;;17.90;4.07;;;12.70;99.90;;;;;;4975622;28;20166;-57
2021/12/31 00:20:51;;;;;;;18.52;3.90;;;12.70;99.90;;;;;;4975540;28;20137;-57
2021/12/31 00:23:20;;;;;;;14.45;3.45;;;12.70;99.90;;;;;;4975296;28;20178;-59
2021/12/31 00:25:46;;;;;;;12.13;3.40;;;12.70;99.90;;;;;;4993601;28;20046;-56
2021/12/31 00:28:12;;;;;;;10.73;3.00;;;12.80;99.90;;;;;;4994626;28;20042;-56
2021/12/31 00:30:39;;;;;;;11.00;2.92;;;12.80;99.90;;;;;;4975416;28;20038;-56
2021/12/31 00:33:06;;;;;;;14.10;3.45;;;12.80;99.90;;;;;;4974908;28;20378;-57
2021/12/31 00:35:34;;;;;;;13.02;3.00;;;12.80;99.90;;;;;;4993373;28;20081;-57
2021/12/31 00:37:59;;;;;;;12.95;2.83;;;12.80;99.90;;;;;;4976942;28;20137;-56
2021/12/31 00:40:28;;;;;;;13.60;3.10;;;12.80;99.90;;;;;;4994690;28;20125;-56
2021/12/31 00:42:54;;;;;;;11.70;3.65;;;12.80;99.90;;;;;;4994657;28;20038;-57
2021/12/31 00:45:22;;;;;;;15.93;3.72;;;12.90;99.90;;;;;;4994374;28;20700;-56
2021/12/31 00:47:48;;;;;;;16.30;9.57;;;12.90;99.90;;;;;;4994490;28;20117;-57
2021/12/31 00:50:15;;;;;;;22.58;14.45;;;12.90;99.90;;;;;;4977028;28;20105;-57
2021/12/31 00:52:42;;;;;;;22.08;11.10;;;12.80;99.90;;;;;;4994154;28;20081;-56
2021/12/31 00:55:10;;;;;;;28.40;17.55;;;12.90;99.90;;;;;;4994099;28;20040;-56
2021/12/31 00:57:37;;;;;;;18.73;11.82;;;12.90;99.90;;;;;;4993987;28;20038;-56
2021/12/31 01:00:05;;;;;;;15.75;3.70;;;12.90;99.90;;;;;;4994287;28;20038;-56
2021/12/31 01:02:31;;;;;;;13.88;3.85;;;12.90;99.90;;;;;;4993443;28;20088;-56
2021/12/31 01:04:57;;;;;;;13.95;3.28;;;12.90;99.90;;;;;;4994126;28;20078;-57
2021/12/31 01:07:22;;;;;;;11.98;2.75;;;12.90;99.90;;;;;;4994103;28;20461;-57
2021/12/31 01:09:49;;;;;;;15.50;3.28;;;12.90;99.90;;;;;;4993812;28;20043;-57
2021/12/31 01:12:15;;;;;;;11.85;3.33;;;12.90;99.90;;;;;;4994201;28;20486;-56
2021/12/31 01:15:03;;;;;;;14.23;3.30;;;12.90;99.90;;;;;;4994130;28;20092;-56
2021/12/31 01:20:03;;;;;;;15.93;2.75;;;12.90;99.90;;;;;;4993633;28;20042;-56
2021/12/31 01:22:31;;;;;;;10.98;2.90;;;12.90;99.90;;;;;;4993664;28;20101;-56
2021/12/31 01:24:57;;;;;;;9.32;2.95;;;12.90;99.90;;;;;;4993747;28;20094;-57
2021/12/31 01:27:23;;;;;;;12.13;3.35;;;12.90;99.90;;;;;;4992899;28;20074;-56
2021/12/31 01:29:49;;;;;;;12.98;2.90;;;13.00;99.90;;;;;;4993657;28;20038;-56
2021/12/31 01:32:15;;;;;;;11.40;3.50;;;12.90;99.90;;;;;;4993713;28;20034;-56
2021/12/31 01:34:40;;;;;;;13.35;3.10;;;13.00;99.90;;;;;;4993232;28;20169;-56
2021/12/31 01:37:07;;;;;;;10.95;3.42;;;13.00;99.90;;;;;;4992256;28;20549;-56
2021/12/31 01:39:34;;;;;;;12.38;2.90;;;13.00;99.90;;;;;;4975749;28;20100;-57
2021/12/31 01:42:01;;;;;;;12.85;3.75;;;13.00;99.90;;;;;;4992991;28;20074;-56
2021/12/31 01:44:35;;;;;;;11.80;3.45;;;13.00;99.90;;;;;;4993141;28;20441;-56
2021/12/31 01:47:08;;;;;;;11.27;3.00;;;13.00;99.90;;;;;;4993148;28;20046;-57
2021/12/31 01:49:37;;;;;;;11.35;3.30;;;13.00;99.90;;;;;;4992636;28;20041;-56
2021/12/31 01:52:05;;;;;;;11.68;3.15;;;13.00;99.90;;;;;;4992202;28;20097;-57
2021/12/31 01:54:32;;;;;;;10.38;3.13;;;13.00;99.90;;;;;;4992947;28;20070;-56
2021/12/31 01:57:00;;;;;;;13.10;3.42;;;13.00;99.90;;;;;;4993329;28;20049;-57
2021/12/31 01:59:27;;;;;;;10.98;3.97;;;13.00;99.90;;;;;;4993054;28;20076;-57
2021/12/31 02:01:55;;;;;;;9.93;3.58;;;12.90;99.90;;;;;;4993045;28;20069;-57
2021/12/31 02:04:21;;;;;;;13.18;4.07;;;12.90;99.90;;;;;;4992035;28;20101;-57
2021/12/31 02:06:47;;;;;;;13.07;4.00;;;12.80;99.90;;;;;;4992535;28;20042;-57
2021/12/31 02:09:13;;;;;;;14.38;3.90;;;12.80;99.90;;;;;;4992326;28;20085;-56
2021/12/31 02:11:39;;;;;;;12.13;4.32;;;12.80;99.90;;;;;;4992604;28;20046;-57
2021/12/31 02:14:05;;;;;;;12.05;4.22;;;12.80;99.90;;;;;;4993003;28;20512;-57
2021/12/31 02:16:31;;;;;;;10.95;4.70;;;12.80;99.90;;;;;;4993029;28;20050;-57
2021/12/31 02:19:11;;;;;;;10.13;4.72;;;12.80;99.90;;;;;;4992731;28;20568;-57
2021/12/31 02:21:37;;;;;;;10.50;5.53;;;12.90;99.90;;;;;;4992593;28;20262;-57
2021/12/31 02:24:06;;;;;;;12.73;5.07;;;12.90;99.90;;;;;;4977950;28;20566;-57
2021/12/31 02:26:32;;;;;;;9.93;4.78;;;12.90;99.90;;;;;;4973534;28;20164;-57
2021/12/31 02:28:57;;;;;;;14.15;5.32;;;12.90;99.90;;;;;;4973247;28;20440;-57
2021/12/31 02:31:23;;;;;;;11.57;5.40;;;12.90;99.90;;;;;;4973582;28;20137;-57
2021/12/31 02:33:50;;;;;;;11.18;5.18;;;12.90;99.90;;;;;;4974099;28;20056;-57
2021/12/31 02:36:16;;;;;;;10.32;5.22;;;13.00;99.90;;;;;;4973001;28;20038;-57
2021/12/31 02:38:43;;;;;;;11.02;5.20;;;13.00;99.90;;;;;;4972020;28;20046;-57
2021/12/31 02:41:10;;;;;;;13.13;6.10;;;13.00;99.90;;;;;;4975382;28;20105;-57
2021/12/31 02:43:37;;;;;;;9.02;5.85;;;13.00;99.90;;;;;;4973098;28;20046;-56
2021/12/31 02:46:02;;;;;;;13.68;6.78;;;13.00;99.90;;;;;;4973665;28;20113;-57
2021/12/31 02:48:28;;;;;;;12.02;6.32;;;13.00;99.90;;;;;;4972472;28;20042;-57
2021/12/31 02:50:56;;;;;;;9.85;6.03;;;13.00;99.90;;;;;;4972896;28;20137;-57
2021/12/31 02:53:31;;;;;;;15.27;7.13;;;13.00;99.90;;;;;;4972670;28;20093;-56
2021/12/31 02:56:06;;;;;;;14.43;6.43;;;13.10;99.90;;;;;;4990666;28;20397;-57
2021/12/31 02:58:34;;;;;;;12.43;6.15;;;13.10;99.90;;;;;;4991897;28;20042;-57
2021/12/31 03:01:00;;;;;;;14.05;6.82;;;13.10;99.90;;;;;;4992006;28;20038;-57
2021/12/31 03:03:27;;;;;;;12.82;6.03;;;13.10;99.90;;;;;;4991549;28;20046;-57
2021/12/31 03:05:54;;;;;;;13.80;5.93;;;13.10;99.90;;;;;;4991737;28;20113;-57
2021/12/31 03:08:25;;;;;;;12.20;5.45;;;13.10;99.90;;;;;;4991535;28;20031;-57
2021/12/31 03:10:53;;;;;;;11.70;6.47;;;13.20;99.90;;;;;;4991432;28;20421;-57
2021/12/31 03:13:18;;;;;;;10.60;6.35;;;13.20;99.90;;;;;;4991812;28;20414;-56
2021/12/31 03:15:45;;;;;;;12.38;5.80;;;13.10;99.90;;;;;;4991639;28;20053;-57
2021/12/31 03:18:11;;;;;;;10.52;5.50;;;13.10;99.90;;;;;;4991824;28;20509;-57
2021/12/31 03:20:43;;;;;;;10.35;5.80;;;13.20;99.90;;;;;;4991772;28;20414;-56
2021/12/31 03:23:10;;;;;;;10.80;6.35;;;13.20;99.90;;;;;;4991632;28;20046;-56
2021/12/31 03:25:36;;;;;;;13.38;6.55;;;13.20;99.90;;;;;;4973787;28;20065;-56
2021/12/31 03:28:02;;;;;;;16.15;7.20;;;13.10;99.90;;;;;;4991584;28;20065;-57
2021/12/31 03:30:28;;;;;;;11.95;6.57;;;13.20;99.90;;;;;;4991425;28;20030;-57
2021/12/31 03:32:54;;;;;;;10.88;6.30;;;13.20;99.90;;;;;;4991328;28;20042;-55
2021/12/31 03:35:20;;;;;;;13.02;6.75;;;13.10;99.90;;;;;;4991779;28;20398;-56
2021/12/31 03:37:45;;;;;;;15.30;7.22;;;13.20;99.90;;;;;;4987298;28;20494;-57
2021/12/31 03:40:12;;;;;;;11.82;6.68;;;13.10;99.90;;;;;;4972306;28;20479;-56
2021/12/31 03:42:37;;;;;;;10.75;6.00;;;13.10;99.90;;;;;;4972245;28;20046;-56
2021/12/31 03:45:04;;;;;;;12.13;6.60;;;13.10;99.90;;;;;;4971748;28;20046;-57
2021/12/31 03:47:29;;;;;;;12.40;7.45;;;13.10;99.90;;;;;;4972282;28;20507;-57
2021/12/31 03:49:55;;;;;;;13.25;6.82;;;13.00;99.90;;;;;;4973376;28;20121;-57
2021/12/31 03:52:21;;;;;;;9.95;6.80;;;13.10;99.90;;;;;;4975732;28;20042;-56
2021/12/31 03:54:46;;;;;;;12.85;6.75;;;13.00;99.90;;;;;;4975776;28;20054;-57
2021/12/31 03:57:12;;;;;;;10.70;6.70;;;13.00;99.90;;;;;;4976088;28;20045;-56
2021/12/31 03:59:38;;;;;;;9.68;5.63;;;13.00;99.90;;;;;;4976128;28;20046;-56
2021/12/31 04:02:03;;;;;;;10.82;6.03;;;13.00;99.90;;;;;;4975943;28;20074;-57
2021/12/31 04:04:30;;;;;;;8.88;6.15;;;13.00;99.90;;;;;;4975522;28;20510;-56
2021/12/31 04:06:56;;;;;;;10.40;5.72;;;13.00;99.90;;;;;;4975708;28;20047;-57
2021/12/31 04:09:21;;;;;;;9.95;5.72;;;13.00;99.90;;;;;;4975609;28;20406;-56
2021/12/31 04:11:47;;;;;;;11.00;5.50;;;12.90;99.90;;;;;;4975492;28;20479;-57
2021/12/31 04:14:13;;;;;;;11.30;5.55;;;13.00;99.90;;;;;;4975716;28;20031;-56
2021/12/31 04:16:38;;;;;;;9.18;5.47;;;13.00;99.90;;;;;;4975649;28;20047;-57
2021/12/31 04:19:04;;;;;;;12.82;5.70;;;13.00;99.90;;;;;;4975358;28;20058;-57
2021/12/31 04:21:31;;;;;;;9.85;4.50;;;12.90;99.90;;;;;;4975670;28;20039;-56
2021/12/31 04:24:13;;;;;;;11.88;4.97;;;12.90;99.90;;;;;;4975432;28;20378;-57
2021/12/31 04:26:39;;;;;;;11.02;5.15;;;13.00;99.90;;;;;;4994106;28;20043;-57
2021/12/31 04:29:05;;;;;;;10.40;4.65;;;13.00;99.90;;;;;;4994541;28;20093;-57
2021/12/31 04:31:31;;;;;;;7.85;4.07;;;13.00;99.90;;;;;;4994852;28;20038;-57
2021/12/31 04:33:58;;;;;;;10.43;4.32;;;13.00;99.90;;;;;;4994325;28;20462;-56
2021/12/31 04:36:24;;;;;;;9.38;4.10;;;12.90;99.90;;;;;;4994779;28;20422;-57
2021/12/31 04:38:50;;;;;;;8.55;4.30;;;13.00;99.90;;;;;;4994460;28;20072;-56
2021/12/31 04:41:15;;;;;;;9.82;3.92;;;13.00;99.90;;;;;;4994441;28;20078;-56
2021/12/31 04:43:41;;;;;;;7.82;3.67;;;13.00;99.90;;;;;;4994321;28;20049;-57
2021/12/31 04:46:07;;;;;;;11.93;3.58;;;13.00;99.90;;;;;;4993856;28;20050;-56
2021/12/31 04:48:32;;;;;;;9.50;3.50;;;13.00;99.90;;;;;;4994472;28;20034;-57
2021/12/31 04:50:58;;;;;;;8.85;3.08;;;13.00;99.90;;;;;;4994541;28;20034;-56
2021/12/31 04:53:24;;;;;;;9.38;3.08;;;13.00;99.90;;;;;;4977045;28;20034;-56
2021/12/31 04:55:50;;;;;;;7.68;3.28;;;13.10;99.90;;;;;;4994240;28;20538;-57
2021/12/31 04:58:16;;;;;;;6.45;3.22;;;13.10;99.90;;;;;;4994316;28;20506;-57
2021/12/31 05:00:42;;;;;;;9.15;3.17;;;13.00;99.90;;;;;;4993942;28;20042;-56
2021/12/31 05:03:09;;;;;;;9.48;2.88;;;13.10;99.90;;;;;;4993103;28;20096;-57
2021/12/31 05:05:35;;;;;;;6.80;2.65;;;13.10;99.90;;;;;;4993907;28;20104;-57
2021/12/31 05:08:01;;;;;;;6.72;2.40;;;13.10;99.90;;;;;;4994119;28;20074;-57
2021/12/31 05:10:31;;;;;;;6.28;2.30;;;13.10;99.90;;;;;;4993475;28;20054;-57
2021/12/31 05:12:59;;;;;;;6.93;2.53;;;13.20;99.90;;;;;;4994099;28;20085;-58
2021/12/31 05:15:27;;;;;;;6.85;2.30;;;13.20;99.90;;;;;;4993701;28;20042;-57
2021/12/31 05:17:54;;;;;;;6.03;2.10;;;13.20;99.90;;;;;;4993833;28;20050;-58
2021/12/31 05:20:21;;;;;;;7.72;2.50;;;13.20;99.90;;;;;;4993752;28;20482;-58
2021/12/31 05:22:47;;;;;;;7.35;2.20;;;13.20;99.90;;;;;;4993924;28;20430;-58
2021/12/31 05:25:13;;;;;;;5.90;2.22;;;13.20;99.90;;;;;;4957520;28;20031;-57
2021/12/31 05:27:39;;;;;;;7.53;2.30;;;13.10;99.90;;;;;;4974117;28;20038;-58
2021/12/31 05:30:05;;;;;;;7.32;2.47;;;13.10;99.90;;;;;;4973878;28;20379;-57
2021/12/31 05:32:31;;;;;;;8.50;1.85;;;13.00;99.90;;;;;;4974165;28;20442;-58
2021/12/31 05:34:57;;;;;;;6.53;2.30;;;13.00;99.90;;;;;;4973527;28;20043;-57
2021/12/31 05:37:23;;;;;;;6.50;2.10;;;12.90;99.90;;;;;;4973953;28;20035;-57
2021/12/31 05:39:49;;;;;;;3.88;1.90;;;12.90;99.90;;;;;;4974105;28;20046;-58
2021/12/31 05:42:15;;;;;;;5.80;2.20;;;12.80;99.90;;;;;;4974049;28;20049;-56
2021/12/31 05:44:40;;;;;;;5.88;2.17;;;12.80;99.90;;;;;;4956488;28;20055;-57
2021/12/31 05:47:07;;;;;;;8.95;2.28;;;12.70;99.90;;;;;;4973892;28;20446;-57
2021/12/31 05:49:32;;;;;;;6.13;2.38;;;12.70;99.90;;;;;;4974000;28;20049;-58
2021/12/31 05:51:58;;;;;;;5.78;1.83;;;12.70;99.90;;;;;;4973615;28;20039;-57
2021/12/31 05:54:24;;;;;;;6.90;1.88;;;12.60;99.90;;;;;;4973565;28;20117;-58
2021/12/31 05:56:49;;;;;;;6.45;2.13;;;12.60;99.90;;;;;;4973784;28;20074;-58
2021/12/31 05:59:15;;;;;;;7.93;2.22;;;12.60;99.90;;;;;;4973602;28;20047;-57
2021/12/31 06:01:41;;;;;;;5.80;2.00;;;12.60;99.90;;;;;;4973529;28;20402;-57
2021/12/31 06:04:07;;;;;;;7.93;2.75;;;12.50;99.90;;;;;;4973093;28;20367;-57
2021/12/31 06:06:32;;;;;;;8.07;2.00;;;12.50;99.90;;;;;;4973411;28;20057;-57
2021/12/31 06:08:58;;;;;;;5.47;1.85;;;12.50;99.90;;;;;;4972855;28;20039;-57
2021/12/31 06:11:24;;;;;;;9.65;3.17;;;12.50;99.90;;;;;;4973550;28;20086;-57
2021/12/31 06:13:59;;;;;;;6.13;2.42;;;12.50;99.90;;;;;;4972998;28;20038;-57
2021/12/31 06:16:25;;;;;;;6.63;2.30;;;12.50;99.90;;;;;;4992650;28;20043;-57
2021/12/31 06:18:51;;;;;;;7.13;2.03;;;12.40;99.90;;;;;;4992900;28;20397;-56
2021/12/31 06:21:16;;;;;;;7.80;2.00;;;12.50;99.90;;;;;;4992622;28;20047;-57
2021/12/31 06:23:42;;;;;;;5.35;1.90;;;12.50;99.90;;;;;;4992285;28;20050;-57
2021/12/31 06:26:09;;;;;;;5.35;2.35;;;12.50;99.90;;;;;;4975045;28;20038;-57
2021/12/31 06:28:35;;;;;;;7.85;2.35;;;12.50;99.90;;;;;;4992387;28;20050;-57
2021/12/31 06:31:01;;;;;;;8.95;2.20;;;12.50;99.90;;;;;;4992365;28;20100;-57
2021/12/31 06:33:26;;;;;;;8.40;2.35;;;12.50;99.90;;;;;;4992057;28;20038;-57
2021/12/31 06:35:52;;;;;;;6.75;2.20;;;12.50;99.90;;;;;;4992335;28;20046;-57
2021/12/31 06:38:18;;;;;;;5.75;2.15;;;12.40;99.90;;;;;;4992433;28;20048;-58
2021/12/31 06:40:43;;;;;;;7.57;2.10;;;12.60;99.90;;;;;;4992291;28;20062;-57
2021/12/31 06:43:09;;;;;;;4.25;2.00;;;12.40;99.90;;;;;;4992467;28;20066;-57
2021/12/31 06:45:35;;;;;;;7.53;1.98;;;12.40;99.90;;;;;;4991927;28;20046;-57
2021/12/31 06:48:01;;;;;;;6.15;2.15;;;12.50;99.90;;;;;;4992335;28;20553;-58
2021/12/31 06:50:27;;;;;;;6.22;2.25;;;12.40;99.90;;;;;;4992082;28;20122;-57
2021/12/31 06:52:52;;;;;;;5.13;2.10;;;12.40;99.90;;;;;;4992025;28;20045;-57
2021/12/31 06:55:18;;;;;;;7.97;2.55;;;12.40;99.90;;;;;;4992286;28;20448;-57
2021/12/31 06:57:46;;;;;;;6.45;2.15;;;12.40;99.90;;;;;;4991367;28;20773;-57
2021/12/31 07:00:12;;;;;;;7.03;2.25;;;12.30;99.90;;;;;;4991445;28;20045;-56
2021/12/31 07:02:38;;;;;;;8.27;2.35;;;12.40;99.90;;;;;;4992103;28;20113;-57
2021/12/31 07:05:04;;;;;;;5.22;1.95;;;12.30;99.90;;;;;;4991420;28;20118;-57
2021/12/31 07:07:29;;;;;;;7.55;2.30;;;12.40;99.90;;;;;;4991935;28;20042;-58
2021/12/31 07:09:55;;;;;;;4.57;2.10;;;12.40;99.90;;;;;;4991436;28;20061;-58
2021/12/31 07:12:21;;;;;;;7.25;2.50;;;12.40;99.90;;;;;;4991660;28;20126;-57
2021/12/31 07:14:46;;;;;;;7.72;2.20;;;12.30;99.90;;;;;;4991654;28;20042;-57
2021/12/31 07:17:12;;;;;;;5.32;2.10;;;12.30;99.90;;;;;;4991929;28;20096;-57
2021/12/31 07:19:38;;;;;;;6.72;2.15;;;12.30;99.90;;;;;;4958140;28;20089;-57
2021/12/31 07:22:04;;;;;;;6.53;2.28;;;12.30;99.90;;;;;;4991419;28;20463;-57
2021/12/31 07:24:29;;;;;;;6.18;2.17;;;12.30;99.90;;;;;;4991394;28;20430;-57
2021/12/31 07:26:55;;;;;;;6.78;2.33;;;12.30;99.90;;;;;;4991512;28;20057;-57
2021/12/31 07:29:20;;;;;;;6.10;2.25;;;12.30;99.90;;;;;;4991844;28;20467;-57
2021/12/31 07:31:46;;;;;;;6.50;2.35;;;12.30;99.90;;;;;;4991446;28;20074;-57
2021/12/31 07:34:12;;;;;;;5.78;2.20;;;12.30;99.90;;;;;;4990867;28;20077;-57
2021/12/31 07:36:37;;;;;;;5.05;2.30;;;12.30;99.90;;;;;;4991528;28;20077;-57
2021/12/31 07:39:07;;;;;;;5.85;2.28;;;12.30;99.90;;;;;;4987521;28;20034;-57
2021/12/31 07:41:33;;;;;;;8.30;2.20;;;12.30;99.90;;;;;;4971363;28;20445;-57
2021/12/31 07:43:59;;;;;;;9.63;2.25;;;12.30;99.90;;;;;;4971724;28;20047;-57
2021/12/31 07:46:25;;;;;;;4.60;2.05;;;12.20;99.90;;;;;;4971274;28;20471;-57
2021/12/31 07:48:51;;;;;;;6.18;2.20;;;12.30;99.90;;;;;;4971558;28;20043;-56
2021/12/31 07:51:17;;;;;;;5.38;2.35;;;12.20;99.90;;;;;;4971649;28;20054;-57
2021/12/31 07:53:43;;;;;;;5.85;2.58;;;12.20;99.90;;;;;;4974055;28;20035;-57
2021/12/31 07:56:09;;;;;;;6.25;2.13;;;12.30;99.90;;;;;;4971582;28;20053;-57
2021/12/31 07:58:34;;;;;;;6.60;2.25;;;12.30;99.90;;;;;;4971270;28;20459;-57
2021/12/31 08:01:00;;;;;;;6.25;2.30;;;12.30;99.90;;;;;;4971620;28;20495;-57
2021/12/31 08:03:26;;;;;;;7.32;2.20;;;12.30;99.90;;;;;;4971122;28;20501;-57
2021/12/31 08:05:52;;;;;;;6.00;2.13;;;12.30;99.90;;;;;;4971292;28;20074;-57
2021/12/31 08:08:18;;;;;;;5.97;2.30;;;12.40;99.90;;;;;;4971388;28;20035;-57
2021/12/31 08:10:43;;;;;;;7.53;2.10;;;12.40;99.90;;;;;;4971413;28;20186;-57
2021/12/31 08:13:10;;;;;;;5.60;1.92;;;12.40;99.90;;;;;;4971771;28;20474;-56
2021/12/31 08:15:36;;;;;;;6.68;2.30;;;12.40;99.90;;;;;;4971677;28;20494;-57
2021/12/31 08:18:01;;;;;;;7.22;2.05;;;12.40;99.90;;;;;;4971895;28;20038;-57
2021/12/31 08:20:27;;;;;;;8.45;2.50;;;12.40;99.90;;;;;;4971498;28;20030;-57
2021/12/31 08:22:53;;;;;;;6.18;2.30;;;12.40;99.90;;;;;;4971895;28;20068;-57
2021/12/31 08:25:19;;;;;;;6.60;2.42;;;12.40;99.90;;;;;;4971761;28;20039;-57
2021/12/31 08:27:45;;;;;;;7.07;2.38;;;12.50;99.90;;;;;;4971279;28;20038;-58
2021/12/31 08:30:11;;;;;;;6.70;2.15;;;12.50;99.90;;;;;;4971612;28;20038;-57
2021/12/31 08:32:38;;;;;;;7.93;2.47;;;12.50;99.90;;;;;;4953991;28;20101;-57
2021/12/31 08:35:05;;;;;;;8.02;3.00;;;12.50;99.90;;;;;;4971160;28;20043;-57
2021/12/31 08:37:31;;;;;;;7.50;2.55;;;12.50;99.90;;;;;;4979471;28;20354;-57
2021/12/31 08:39:57;;;;;;;4.88;2.15;;;12.50;99.90;;;;;;4975642;28;20046;-57
2021/12/31 08:42:23;;;;;;;5.32;2.13;;;12.50;99.90;;;;;;4978654;28;20066;-57
2021/12/31 08:44:49;;;;;;;5.85;2.28;;;12.50;99.90;;;;;;4978523;28;20505;-57
2021/12/31 08:47:15;;;;;;;6.72;2.00;;;12.40;99.90;;;;;;4981544;28;20050;-57
2021/12/31 08:49:40;;;;;;;6.53;2.17;;;12.50;99.90;;;;;;4979799;28;20081;-57
2021/12/31 08:52:06;;;;;;;4.80;2.10;;;12.50;99.90;;;;;;4977887;28;20347;-57
2021/12/31 08:54:32;;;;;;;5.93;2.60;;;12.50;99.90;;;;;;4981447;28;20387;-57
2021/12/31 08:57:00;;;;;;;6.47;1.98;;;12.50;99.90;;;;;;4979361;28;20058;-57
2021/12/31 08:59:26;;;;;;;5.38;2.65;;;12.50;99.90;;;;;;4980326;28;20049;-57
2021/12/31 09:01:51;;;;;;;5.85;2.40;;;12.50;99.90;;;;;;4979806;28;20066;-57
2021/12/31 09:04:17;;;;;;;5.38;2.60;;;12.50;99.90;;;;;;4978231;28;20051;-56
2021/12/31 09:06:43;;;;;;;7.00;2.33;;;12.50;99.90;;;;;;4978481;28;20039;-57
2021/12/31 09:09:08;;;;;;;4.10;2.10;;;12.50;99.90;;;;;;4978637;28;20089;-57
2021/12/31 09:11:34;;;;;;;6.95;2.28;;;12.50;99.90;;;;;;4963095;28;20054;-57
2021/12/31 09:14:00;;;;;;;4.60;2.25;;;12.50;99.90;;;;;;4980554;28;20038;-57
2021/12/31 09:16:26;;;;;;;5.43;2.40;;;12.50;99.90;;;;;;4980424;28;20034;-57
2021/12/31 09:18:52;;;;;;;6.25;2.30;;;12.50;99.90;;;;;;4979693;28;20052;-57
2021/12/31 09:21:18;;;;;;;7.68;2.47;;;12.50;99.90;;;;;;4980147;28;20039;-57
2021/12/31 09:23:47;;;;;;;9.07;2.95;;;12.50;99.90;;;;;;4960054;28;20040;-57
2021/12/31 09:26:15;;;;;;;6.78;2.25;;;12.50;99.90;;;;;;4978473;28;20054;-57
2021/12/31 09:28:41;;;;;;;6.25;2.72;;;12.50;99.90;;;;;;4979954;28;20046;-57
2021/12/31 09:31:08;;;;;;;6.32;2.50;;;12.50;99.90;;;;;;4979467;28;20037;-56
2021/12/31 09:33:34;;;;;;;5.03;2.55;;;12.50;99.90;;;;;;4980087;28;20034;-57
2021/12/31 09:36:00;;;;;;;6.65;2.60;;;12.50;99.90;;;;;;4980731;28;20045;-57
2021/12/31 09:38:26;;;;;;;7.10;2.65;;;12.50;99.90;;;;;;4978131;28;20023;-57
2021/12/31 09:40:54;;;;;;;8.27;2.63;;;12.50;99.90;;;;;;4976659;28;20049;-57
2021/12/31 09:43:20;;;;;;;6.63;2.85;;;12.50;99.90;;;;;;4974998;28;20053;-57
2021/12/31 09:45:50;;;;;;;7.60;3.05;;;12.50;99.90;;;;;;4976073;28;20049;-57
2021/12/31 09:48:20;;;;;;;5.78;2.63;;;12.50;99.90;;;;;;4978166;28;20524;-57
2021/12/31 09:50:49;;;;;;;6.32;2.65;;;12.50;99.90;;;;;;4981035;28;20031;-56
2021/12/31 09:53:17;;;;;;;7.05;2.92;;;12.50;99.90;;;;;;4979587;28;20065;-56
2021/12/31 09:55:52;;;;;;;7.22;2.95;;;12.60;99.90;;;;;;4979003;28;20038;-57
2021/12/31 09:58:19;;;;;;;6.32;2.70;;;12.60;99.90;;;;;;4977110;28;20117;-57
2021/12/31 10:00:47;;;;;;;6.38;2.80;;;12.50;99.90;;;;;;4976878;28;20042;-57
2021/12/31 10:03:16;;;;;;;6.35;3.22;;;12.60;99.90;;;;;;4975577;28;20043;-57
2021/12/31 10:05:48;;;;;;;5.88;2.85;;;12.60;99.90;;;;;;4978181;28;20066;-57
2021/12/31 10:08:14;;;;;;;10.43;3.58;;;12.60;99.90;;;;;;4978185;28;20044;-57
2021/12/31 10:10:39;;;;;;;7.13;3.15;;;12.60;99.90;;;;;;4976353;28;20058;-57
2021/12/31 10:13:07;;;;;;;7.38;3.17;;;12.60;99.90;;;;;;4974639;28;20101;-57
2021/12/31 10:15:40;;;;;;;6.55;2.88;;;12.60;99.90;;;;;;4977414;28;20117;-57
2021/12/31 10:18:13;;;;;;;8.38;3.50;;;12.60;99.90;;;;;;4976128;28;20026;-57
2021/12/31 10:20:51;;;;;;;9.25;3.22;;;12.60;99.90;;;;;;4977232;28;20041;-57
2021/12/31 10:23:19;;;;;;;8.48;3.55;;;12.60;99.90;;;;;;4973491;28;20035;-57
2021/12/31 10:25:46;;;;;;;7.88;3.17;;;12.50;99.90;;;;;;4972080;28;20382;-57
2021/12/31 10:28:14;;;;;;;6.68;3.42;;;12.60;99.90;;;;;;4972119;28;20118;-57
2021/12/31 10:30:41;;;;;;;7.75;3.25;;;12.50;99.90;;;;;;4973763;28;20046;-57
2021/12/31 10:33:07;;;;;;;8.18;3.60;;;12.60;99.90;;;;;;4975786;28;20499;-57
2021/12/31 10:35:42;;;;;;;8.77;4.05;;;12.60;99.90;;;;;;4980009;28;20038;-57
2021/12/31 10:38:11;;;;;;;9.18;3.95;;;12.80;99.90;;;;;;4978056;28;20426;-57
2021/12/31 10:40:46;;;;;;;9.80;3.28;;;12.60;99.90;;;;;;4979621;28;20038;-57
2021/12/31 10:43:25;;;;;;;7.45;3.63;;;12.50;99.90;;;;;;4980601;28;20049;-57
2021/12/31 10:46:10;;;;;;;7.95;3.90;;;12.50;99.90;;;;;;4973975;28;20098;-57
2021/12/31 10:48:43;;;;;;;9.68;4.13;;;12.50;99.90;;;;;;4975365;28;20045;-57
2021/12/31 10:51:11;;;;;;;8.67;3.90;;;12.50;99.90;;;;;;4972864;28;20039;-57
2021/12/31 10:53:38;;;;;;;8.93;3.80;;;12.40;99.90;;;;;;4972880;28;20069;-57
2021/12/31 10:56:14;;;;;;;8.38;3.88;;;12.40;99.90;;;;;;4974205;28;20049;-57
2021/12/31 10:58:42;;;;;;;10.95;4.35;;;12.50;99.90;;;;;;4972038;28;20034;-57
2021/12/31 11:01:14;;;;;;;9.02;4.78;;;12.40;99.90;;;;;;4974087;28;20055;-57
2021/12/31 11:03:41;;;;;;;7.55;3.75;;;12.40;99.90;;;;;;4971755;28;20042;-57
2021/12/31 11:06:09;;;;;;;10.27;5.60;;;12.50;99.90;;;;;;4979535;28;20034;-57
2021/12/31 11:08:36;;;;;;;11.10;4.10;;;12.50;99.90;;;;;;4976933;28;20038;-57
2021/12/31 11:11:03;;;;;;;12.45;4.05;;;12.50;99.90;;;;;;4972567;28;20047;-57
2021/12/31 11:13:30;;;;;;;7.22;4.20;;;12.40;99.90;;;;;;4972121;28;20034;-57
2021/12/31 11:15:58;;;;;;;10.35;4.28;;;12.40;99.90;;;;;;4983425;28;20046;-57
2021/12/31 11:18:24;;;;;;;8.07;3.60;;;12.50;99.90;;;;;;4974670;28;20060;-57
2021/12/31 11:20:52;;;;;;;7.60;3.85;;;12.50;99.90;;;;;;4974628;28;20027;-57
2021/12/31 11:23:27;;;;;;;8.88;4.20;;;12.40;99.90;;;;;;4973210;28;20413;-56
2021/12/31 11:26:13;;;;;;;11.38;4.60;;;12.40;99.90;;;;;;4977190;28;20117;-57
2021/12/31 11:28:41;;;;;;;9.73;4.53;;;12.40;99.90;;;;;;4979457;28;20084;-57
2021/12/31 11:31:18;;;;;;;9.30;4.20;;;12.50;99.90;;;;;;4976053;28;20058;-57
2021/12/31 11:34:12;;;;;;;10.55;4.10;;;12.50;99.90;;;;;;4975938;28;20074;-57
2021/12/31 11:36:54;;;;;;;8.20;4.50;;;12.50;99.90;;;;;;4974419;28;20073;-57
2021/12/31 11:39:32;;;;;;;8.43;4.88;;;12.50;99.90;;;;;;4971153;28;20043;-57
2021/12/31 11:42:02;;;;;;;9.20;4.70;;;12.50;99.90;;;;;;4973808;28;20046;-57
2021/12/31 11:44:30;;;;;;;10.55;5.03;;;12.50;99.90;;;;;;4972100;28;20042;-57
2021/12/31 11:47:17;;;;;;;11.43;5.10;;;12.50;99.90;;;;;;4978151;28;20382;-57
2021/12/31 11:49:45;;;;;;;8.85;4.63;;;12.60;99.90;;;;;;4954435;28;20054;-57
2021/12/31 11:52:14;;;;;;;11.45;4.60;;;12.60;99.90;;;;;;4970915;28;20043;-58
2021/12/31 11:54:41;;;;;;;7.43;4.32;;;12.60;99.90;;;;;;4971193;28;20049;-57
2021/12/31 11:57:19;;;;;;;13.85;5.15;;;12.60;99.90;;;;;;4971791;28;20046;-58
2021/12/31 11:59:51;;;;;;;8.95;4.68;;;12.60;99.90;;;;;;4991241;28;20041;-57
2021/12/31 12:02:18;;;;;;;9.32;4.63;;;12.60;99.90;;;;;;4991076;28;20046;-57
2021/12/31 12:05:11;;;;;;;8.88;4.85;;;12.60;99.90;;;;;;4990651;28;20394;-57
2021/12/31 12:07:47;;;;;;;9.20;5.03;;;12.60;99.90;;;;;;4984604;28;20066;-57
2021/12/31 12:10:21;;;;;;;10.85;5.15;;;12.60;99.90;;;;;;4991068;28;20510;-57
2021/12/31 12:12:50;;;;;;;;;;;12.60;99.90;;;;;;4995506;28;20474;-56
2021/12/31 12:15:19;;;;;;;10.00;4.88;;;12.60;99.90;;;;;;4994945;28;20381;-58
2021/12/31 12:17:46;;;;;;;11.93;5.20;;;12.60;99.90;;;;;;4994918;28;20038;-57
2021/12/31 12:20:18;;;;;;;13.55;5.47;;;12.50;99.90;;;;;;4980083;28;20120;-57
2021/12/31 12:22:51;;;;;;;11.63;4.93;;;12.50;99.90;;;;;;4980052;28;20121;-57
2021/12/31 12:25:34;;;;;;;14.10;5.20;;;12.40;99.90;;;;;;4981132;28;20225;-57
2021/12/31 12:28:07;;;;;;;21.65;6.32;;;12.40;99.90;;;;;;4985134;28;20050;-57
2021/12/31 12:30:42;;;;;;;17.00;6.30;;;12.30;99.90;;;;;;4978826;28;20891;-57
2021/12/31 12:35:39;;;;;;;13.65;5.70;;;12.10;99.90;;;;;;4979707;28;20038;-57
2021/12/31 12:38:11;;;;;;;18.60;6.60;;;12.00;99.90;;;;;;4980512;28;20073;-57
2021/12/31 12:40:40;;;;;;;18.40;6.45;;;11.90;99.90;;;;;;4981463;28;20050;-56
2021/12/31 12:43:12;;;;;;;14.77;6.20;;;11.30;99.90;;;;;;4979021;28;20470;-56
2021/12/31 12:45:39;;;;;;;14.15;7.40;;;11.80;99.90;;;;;;4980493;28;20049;-57
2021/12/31 12:48:05;;;;;;;13.55;6.88;;;11.80;99.90;;;;;;4977683;28;20097;-58
2021/12/31 12:50:31;;;;;;;11.80;5.82;;;11.80;99.90;;;;;;4979151;28;20038;-57